Time;durP1;ratioP1;P1;durP2;ratioP2;P2;SDS_P1;SDS_P2;PMS_P1;PMS_P2;Temp;Humidity;BMP_temperature;BMP_pressure;BME280_temperature;BME280_humidity;BME280_pressure;Samples;Min_cycle;Max_cycle;Signal;HPM_P1;HPM_P2
2021/01/21 00:01:45;;;;;;;22.65;13.82;;;4.70;99.90;;;;;;4968208;28;20380;-68
2021/01/21 00:04:12;;;;;;;22.13;14.40;;;4.70;99.90;;;;;;4960302;28;20046;-67
2021/01/21 00:06:40;;;;;;;23.88;13.20;;;4.70;99.90;;;;;;4971701;28;20049;-70
2021/01/21 00:09:07;;;;;;;21.90;12.93;;;4.80;99.90;;;;;;4962505;28;20071;-69
2021/01/21 00:11:34;;;;;;;21.95;13.18;;;4.80;99.90;;;;;;4956837;28;20136;-70
2021/01/21 00:14:01;;;;;;;19.95;12.60;;;4.70;99.90;;;;;;4960848;28;20042;-66
2021/01/21 00:16:27;;;;;;;23.02;13.40;;;4.70;99.90;;;;;;4963336;28;20350;-70
2021/01/21 00:18:54;;;;;;;21.50;13.18;;;4.80;99.90;;;;;;4962108;28;20117;-67
2021/01/21 00:21:20;;;;;;;22.55;12.93;;;4.80;99.90;;;;;;4962847;28;20062;-71
2021/01/21 00:23:47;;;;;;;21.08;13.93;;;4.80;99.90;;;;;;4963615;28;20128;-74
2021/01/21 00:26:13;;;;;;;21.67;13.40;;;4.80;99.90;;;;;;4960607;28;20070;-66
2021/01/21 00:28:39;;;;;;;35.05;19.67;;;4.90;99.90;;;;;;4965452;28;20121;-70
2021/01/21 00:31:06;;;;;;;30.40;16.50;;;4.90;99.90;;;;;;4960337;28;21586;-74
2021/01/21 00:33:32;;;;;;;25.88;16.02;;;4.80;99.90;;;;;;4960267;28;20109;-70
2021/01/21 00:35:59;;;;;;;24.13;16.10;;;4.90;99.90;;;;;;4961872;28;20486;-73
2021/01/21 00:38:26;;;;;;;32.97;17.52;;;4.90;99.90;;;;;;4960774;28;20058;-68
2021/01/21 00:40:52;;;;;;;28.60;14.82;;;4.90;99.90;;;;;;4957786;28;20046;-68
2021/01/21 00:43:19;;;;;;;34.20;18.20;;;4.90;99.90;;;;;;4962595;28;20150;-67
2021/01/21 00:45:45;;;;;;;31.60;19.33;;;4.90;99.90;;;;;;4961731;28;20050;-68
2021/01/21 00:48:12;;;;;;;30.15;17.58;;;5.00;99.90;;;;;;4957164;28;20046;-72
2021/01/21 00:50:57;;;;;;;25.67;17.33;;;4.90;99.90;;;;;;4964613;28;20185;-66
2021/01/21 00:53:24;;;;;;;25.23;15.70;;;4.90;99.90;;;;;;4958685;28;20050;-71
2021/01/21 00:55:50;;;;;;;30.52;18.65;;;4.90;99.90;;;;;;4963835;28;20042;-71
2021/01/21 00:58:35;;;;;;;25.45;15.80;;;4.90;99.90;;;;;;4961173;28;20466;-73
2021/01/21 01:01:02;;;;;;;31.52;17.52;;;4.90;99.90;;;;;;4953865;28;20046;-66
2021/01/21 01:03:29;;;;;;;29.50;17.98;;;4.90;99.90;;;;;;4959741;28;20046;-70
2021/01/21 01:05:56;;;;;;;26.85;17.33;;;4.90;99.90;;;;;;4966048;28;20057;-70
2021/01/21 01:08:23;;;;;;;32.28;20.10;;;4.90;99.90;;;;;;4956648;28;20166;-71
2021/01/21 01:10:49;;;;;;;31.75;19.92;;;5.00;99.90;;;;;;4958412;28;20043;-71
2021/01/21 01:13:34;;;;;;;27.80;15.77;;;5.00;99.90;;;;;;4972846;28;20856;-70
2021/01/21 01:16:07;;;;;;;34.33;15.90;;;5.00;99.90;;;;;;4962516;28;20104;-72
2021/01/21 01:18:42;;;;;;;26.35;17.48;;;5.00;99.90;;;;;;4959244;28;21519;-69
2021/01/21 01:21:12;;;;;;;28.25;17.83;;;5.00;99.90;;;;;;4963118;28;20053;-67
2021/01/21 01:23:39;;;;;;;24.40;16.30;;;5.00;99.90;;;;;;4962653;28;20467;-75
2021/01/21 01:26:05;;;;;;;28.60;16.25;;;5.00;99.90;;;;;;4964658;28;20051;-68
2021/01/21 01:28:32;;;;;;;26.25;15.60;;;5.00;99.90;;;;;;4964633;28;20050;-68
2021/01/21 01:30:59;;;;;;;28.83;15.05;;;5.10;99.90;;;;;;4974942;28;20062;-71
2021/01/21 01:33:44;;;;;;;29.48;15.73;;;5.10;99.90;;;;;;4960038;28;20070;-68
2021/01/21 01:36:11;;;;;;;27.08;16.48;;;5.10;99.90;;;;;;4971842;28;20049;-73
2021/01/21 01:38:38;;;;;;;26.90;15.40;;;5.10;99.90;;;;;;4965941;28;20053;-71
2021/01/21 01:41:28;;;;;;;27.13;14.93;;;5.10;99.90;;;;;;4960165;28;20145;-71
2021/01/21 01:43:55;;;;;;;28.35;15.75;;;5.10;99.90;;;;;;4958636;28;20150;-72
2021/01/21 01:46:40;;;;;;;21.33;12.07;;;5.10;99.90;;;;;;4960161;28;20097;-66
2021/01/21 01:49:13;;;;;;;15.65;12.45;;;5.10;99.90;;;;;;4966403;28;20043;-70
2021/01/21 01:51:43;;;;;;;19.52;12.70;;;5.10;99.90;;;;;;4957219;28;20043;-73
2021/01/21 01:54:11;;;;;;;22.17;12.07;;;5.10;99.90;;;;;;4959498;28;20066;-72
2021/01/21 01:56:43;;;;;;;19.00;12.45;;;5.10;99.90;;;;;;4960707;28;20084;-71
2021/01/21 01:59:16;;;;;;;20.00;13.10;;;5.10;99.90;;;;;;4961604;28;20046;-70
2021/01/21 02:02:01;;;;;;;20.98;13.70;;;5.10;99.90;;;;;;4958668;28;20200;-70
2021/01/21 02:04:31;;;;;;;15.40;11.80;;;5.10;99.90;;;;;;4963510;28;20066;-69
2021/01/21 02:07:20;;;;;;;15.15;10.70;;;5.10;99.90;;;;;;4957505;28;20982;-67
2021/01/21 02:09:55;;;;;;;15.50;10.75;;;5.10;99.90;;;;;;4968616;28;20148;-67
2021/01/21 02:12:49;;;;;;;18.20;11.63;;;5.10;99.90;;;;;;4956019;28;20117;-68
2021/01/21 02:15:44;;;;;;;16.38;10.25;;;5.10;99.90;;;;;;4962643;28;20127;-66
2021/01/21 02:18:20;;;;;;;12.98;9.98;;;5.10;99.90;;;;;;4969786;28;20125;-68
2021/01/21 02:21:24;;;;;;;17.50;11.35;;;5.10;99.90;;;;;;4971937;28;20047;-75
2021/01/21 02:24:30;;;;;;;24.98;12.30;;;5.20;99.90;;;;;;4971129;28;20043;-74
2021/01/21 02:27:19;;;;;;;19.98;11.35;;;5.10;99.90;;;;;;4957585;28;20125;-67
2021/01/21 02:29:47;;;;;;;14.45;10.98;;;5.10;99.90;;;;;;4956675;28;20047;-67
2021/01/21 02:32:43;;;;;;;20.52;12.30;;;5.20;99.90;;;;;;4961051;28;20129;-66
2021/01/21 02:35:22;;;;;;;17.38;10.68;;;5.20;99.90;;;;;;4971140;28;20050;-70
2021/01/21 02:37:56;;;;;;;18.48;10.77;;;5.20;99.90;;;;;;4955959;28;20051;-73
2021/01/21 02:40:30;;;;;;;17.27;12.30;;;5.20;99.90;;;;;;4958757;28;20050;-74
2021/01/21 02:43:12;;;;;;;21.95;12.63;;;5.10;99.90;;;;;;4962672;28;20051;-67
2021/01/21 02:45:47;;;;;;;15.48;11.60;;;5.20;99.90;;;;;;4964250;28;20055;-75
2021/01/21 02:48:33;;;;;;;16.98;12.13;;;5.20;99.90;;;;;;4963972;28;20538;-69
2021/01/21 02:51:44;;;;;;;18.05;11.43;;;5.20;99.90;;;;;;4976931;28;20047;-72
2021/01/21 02:54:29;;;;;;;22.58;12.27;;;5.10;99.90;;;;;;4972941;28;20111;-72
2021/01/21 02:57:10;;;;;;;16.25;11.20;;;5.20;99.90;;;;;;4965834;28;20117;-67
2021/01/21 02:59:59;;;;;;;20.65;14.25;;;5.20;99.90;;;;;;4969126;28;20046;-70
2021/01/21 03:02:29;;;;;;;20.05;12.32;;;5.10;99.90;;;;;;4962720;28;20134;-75
2021/01/21 03:04:58;;;;;;;25.73;14.18;;;5.20;99.90;;;;;;4956904;28;20753;-69
2021/01/21 03:07:25;;;;;;;19.25;11.25;;;5.10;99.90;;;;;;4959267;28;20039;-66
2021/01/21 03:09:56;;;;;;;22.58;11.48;;;5.20;99.90;;;;;;4957603;28;20058;-71
2021/01/21 03:12:25;;;;;;;16.50;10.85;;;5.10;99.90;;;;;;4959851;28;20168;-67
2021/01/21 03:15:17;;;;;;;15.90;10.48;;;5.10;99.90;;;;;;4962461;28;20426;-71
2021/01/21 03:17:56;;;;;;;15.27;10.20;;;5.10;99.90;;;;;;4959814;28;20050;-68
2021/01/21 03:20:27;;;;;;;18.02;10.48;;;5.10;99.90;;;;;;4967106;28;20173;-70
2021/01/21 03:22:54;;;;;;;15.88;10.93;;;5.10;99.90;;;;;;4959956;28;20059;-72
2021/01/21 03:25:22;;;;;;;13.77;9.20;;;5.10;99.90;;;;;;4967427;28;20200;-66
2021/01/21 03:27:58;;;;;;;26.77;13.00;;;5.10;99.90;;;;;;4958046;28;20062;-71
2021/01/21 03:30:29;;;;;;;17.17;9.88;;;5.00;99.90;;;;;;4984881;28;20201;-71
2021/01/21 03:32:59;;;;;;;15.95;9.02;;;5.00;99.90;;;;;;4963731;28;20043;-74
2021/01/21 03:35:30;;;;;;;17.23;8.75;;;5.00;99.90;;;;;;4963765;28;20050;-70
2021/01/21 03:37:56;;;;;;;19.88;9.07;;;5.00;99.90;;;;;;4962100;28;20058;-66
2021/01/21 03:40:24;;;;;;;17.77;8.23;;;5.00;99.90;;;;;;4964066;28;20070;-71
2021/01/21 03:42:55;;;;;;;14.43;8.18;;;5.00;99.90;;;;;;4960642;28;20141;-71
2021/01/21 03:45:32;;;;;;;14.65;8.63;;;5.00;99.90;;;;;;4962369;28;20283;-70
2021/01/21 03:48:07;;;;;;;15.82;8.40;;;4.90;99.90;;;;;;4961314;28;20134;-74
2021/01/21 03:50:52;;;;;;;20.58;9.68;;;5.00;99.90;;;;;;4962224;28;20474;-76
2021/01/21 03:53:18;;;;;;;10.65;7.28;;;5.00;99.90;;;;;;4960691;28;20154;-70
2021/01/21 03:55:58;;;;;;;21.60;12.10;;;4.90;99.90;;;;;;4960614;28;20072;-68
2021/01/21 03:58:25;;;;;;;14.73;9.07;;;4.90;99.90;;;;;;4968919;28;20054;-66
2021/01/21 04:01:01;;;;;;;16.73;7.20;;;4.90;99.90;;;;;;4974802;28;20145;-70
2021/01/21 04:03:28;;;;;;;17.05;7.70;;;4.90;99.90;;;;;;4963952;28;20047;-70
2021/01/21 04:06:01;;;;;;;15.80;8.43;;;4.90;99.90;;;;;;4958590;28;20056;-68
2021/01/21 04:08:28;;;;;;;16.70;7.65;;;4.90;99.90;;;;;;4966527;28;20085;-67
2021/01/21 04:11:13;;;;;;;12.20;7.38;;;4.90;99.90;;;;;;4961437;28;20062;-69
2021/01/21 04:13:47;;;;;;;10.32;6.80;;;4.90;99.90;;;;;;4958784;28;20051;-72
2021/01/21 04:16:17;;;;;;;9.15;6.90;;;4.90;99.90;;;;;;4957357;28;20410;-72
2021/01/21 04:18:44;;;;;;;16.02;10.07;;;4.90;99.90;;;;;;4964514;28;20042;-68
2021/01/21 04:21:12;;;;;;;14.65;7.80;;;4.90;99.90;;;;;;4958363;28;20038;-66
2021/01/21 04:23:40;;;;;;;15.32;7.43;;;4.90;99.90;;;;;;4969308;28;20137;-66
2021/01/21 04:26:15;;;;;;;13.05;8.35;;;4.90;99.90;;;;;;4961654;28;20134;-68
2021/01/21 04:28:47;;;;;;;20.55;9.27;;;4.90;99.90;;;;;;4961672;28;20042;-66
2021/01/21 04:31:14;;;;;;;12.98;8.27;;;4.90;99.90;;;;;;4963888;28;20042;-68
2021/01/21 04:33:41;;;;;;;15.52;8.85;;;4.90;99.90;;;;;;4962163;28;20062;-72
2021/01/21 04:36:08;;;;;;;18.63;8.10;;;4.90;99.90;;;;;;4960574;28;20042;-70
2021/01/21 04:38:41;;;;;;;13.00;8.73;;;4.80;99.90;;;;;;4959360;28;20047;-69
2021/01/21 04:41:12;;;;;;;15.68;7.25;;;4.90;99.90;;;;;;4962847;28;20059;-66
2021/01/21 04:43:58;;;;;;;18.50;9.52;;;4.80;99.90;;;;;;4959204;28;20105;-68
2021/01/21 04:46:40;;;;;;;20.30;10.77;;;4.90;99.90;;;;;;4977581;28;20472;-69
2021/01/21 04:49:08;;;;;;;22.20;12.15;;;4.90;99.90;;;;;;4973522;28;20730;-69
2021/01/21 04:51:39;;;;;;;21.13;9.98;;;4.80;99.90;;;;;;4964292;28;20046;-73
2021/01/21 04:54:22;;;;;;;15.30;8.45;;;4.80;99.90;;;;;;4955907;28;20044;-66
2021/01/21 04:57:19;;;;;;;10.38;7.70;;;4.80;99.90;;;;;;4966924;28;20047;-71
2021/01/21 04:59:51;;;;;;;10.52;7.53;;;4.80;99.90;;;;;;4960734;28;20499;-68
2021/01/21 05:02:42;;;;;;;15.55;9.43;;;4.90;99.90;;;;;;4973270;28;20047;-68
2021/01/21 05:05:39;;;;;;;14.02;9.80;;;4.80;99.90;;;;;;4960240;28;20648;-70
2021/01/21 05:08:09;;;;;;;16.05;9.32;;;4.80;99.90;;;;;;4960650;28;20701;-68
2021/01/21 05:10:40;;;;;;;22.60;8.68;;;4.80;99.90;;;;;;4960932;28;20050;-69
2021/01/21 05:13:18;;;;;;;20.10;8.15;;;4.90;99.90;;;;;;4960919;28;20133;-76
2021/01/21 05:16:20;;;;;;;21.60;10.40;;;4.90;99.90;;;;;;4960959;28;20043;-71
2021/01/21 05:19:18;;;;;;;13.13;8.60;;;4.90;99.90;;;;;;4956175;28;20671;-69
2021/01/21 05:22:03;;;;;;;15.68;9.65;;;4.80;99.90;;;;;;4958320;28;20049;-73
2021/01/21 05:25:02;;;;;;;15.18;9.57;;;4.90;99.90;;;;;;4940043;28;20039;-71
2021/01/21 05:27:44;;;;;;;16.45;9.35;;;4.90;99.90;;;;;;4959106;28;20061;-70
2021/01/21 05:30:33;;;;;;;15.60;8.82;;;4.90;99.90;;;;;;4963475;28;20043;-70
2021/01/21 05:33:01;;;;;;;12.30;9.68;;;4.90;99.90;;;;;;4973254;28;20054;-69
2021/01/21 05:35:43;;;;;;;13.82;8.73;;;4.90;99.90;;;;;;4958915;28;20655;-75
2021/01/21 05:38:10;;;;;;;13.95;10.30;;;4.90;99.90;;;;;;4958211;28;20055;-68
2021/01/21 05:41:03;;;;;;;17.00;8.77;;;4.90;99.90;;;;;;4953576;28;20414;-70
2021/01/21 05:44:03;;;;;;;16.40;9.20;;;4.90;99.90;;;;;;4958197;28;21565;-69
2021/01/21 05:46:43;;;;;;;15.13;9.38;;;4.90;99.90;;;;;;4973135;28;20057;-71
2021/01/21 05:49:10;;;;;;;15.48;9.75;;;4.90;99.90;;;;;;4961717;28;20039;-71
2021/01/21 05:51:39;;;;;;;15.15;8.23;;;4.80;99.90;;;;;;4959290;28;20060;-68
2021/01/21 05:54:15;;;;;;;12.02;7.93;;;4.80;99.90;;;;;;4957948;28;20083;-70
2021/01/21 05:57:00;;;;;;;13.82;9.00;;;4.80;99.90;;;;;;4962167;28;20086;-71
2021/01/21 05:59:29;;;;;;;14.27;8.15;;;4.80;99.90;;;;;;4961673;28;20671;-66
2021/01/21 06:02:06;;;;;;;12.60;7.97;;;4.80;99.90;;;;;;4964883;28;20065;-70
2021/01/21 06:04:39;;;;;;;15.52;9.00;;;4.70;99.90;;;;;;4971114;28;20051;-66
2021/01/21 06:07:06;;;;;;;18.45;8.63;;;4.80;99.90;;;;;;4970806;28;20561;-69
2021/01/21 06:09:32;;;;;;;12.40;7.95;;;4.80;99.90;;;;;;4959446;28;20146;-72
2021/01/21 06:12:01;;;;;;;11.32;7.70;;;4.80;99.90;;;;;;4961166;28;20135;-66
2021/01/21 06:14:29;;;;;;;15.40;8.02;;;4.80;99.90;;;;;;4958988;28;20839;-72
2021/01/21 06:16:57;;;;;;;12.68;8.20;;;4.70;99.90;;;;;;4961003;28;20173;-71
2021/01/21 06:19:24;;;;;;;14.73;6.95;;;4.70;99.90;;;;;;4956769;28;20878;-71
2021/01/21 06:21:59;;;;;;;14.68;7.72;;;4.70;99.90;;;;;;4943807;28;20480;-69
2021/01/21 06:24:59;;;;;;;14.57;6.63;;;4.70;99.90;;;;;;4949283;28;20410;-69
2021/01/21 06:27:27;;;;;;;13.18;7.13;;;4.70;99.90;;;;;;4959848;28;20051;-73
2021/01/21 06:29:55;;;;;;;12.60;6.90;;;4.70;99.90;;;;;;4962030;28;20053;-67
2021/01/21 06:32:30;;;;;;;12.55;5.53;;;4.70;99.90;;;;;;4956298;28;20042;-66
2021/01/21 06:35:04;;;;;;;8.10;6.60;;;4.70;99.90;;;;;;4961174;28;20047;-70
2021/01/21 06:37:39;;;;;;;15.07;7.80;;;4.70;99.90;;;;;;4955144;28;20278;-72
2021/01/21 06:40:08;;;;;;;14.75;7.38;;;4.60;99.90;;;;;;4964556;28;20050;-71
2021/01/21 06:42:41;;;;;;;8.85;5.95;;;4.60;99.90;;;;;;4955378;28;20050;-72
2021/01/21 06:45:08;;;;;;;11.38;6.57;;;4.60;99.90;;;;;;4960404;28;20047;-68
2021/01/21 06:47:35;;;;;;;15.23;6.65;;;4.50;99.90;;;;;;4955915;28;20402;-71
2021/01/21 06:50:05;;;;;;;11.77;6.70;;;4.50;99.90;;;;;;4956366;28;20046;-70
2021/01/21 06:52:38;;;;;;;9.10;6.37;;;4.50;99.90;;;;;;4957607;28;21499;-69
2021/01/21 06:55:08;;;;;;;11.80;6.55;;;4.50;99.90;;;;;;4957290;28;20281;-70
2021/01/21 06:57:34;;;;;;;15.00;8.75;;;4.50;99.90;;;;;;4953639;28;20042;-73
2021/01/21 07:00:08;;;;;;;16.58;8.60;;;4.50;99.90;;;;;;4960177;28;20058;-68
2021/01/21 07:02:48;;;;;;;14.65;8.15;;;4.50;99.90;;;;;;4956097;28;20053;-67
2021/01/21 07:05:25;;;;;;;16.50;8.52;;;4.50;99.90;;;;;;4956442;28;20050;-70
2021/01/21 07:08:04;;;;;;;12.07;8.10;;;4.50;99.90;;;;;;4956059;28;20070;-74
2021/01/21 07:10:42;;;;;;;16.63;7.97;;;4.50;99.90;;;;;;4954477;28;20783;-72
2021/01/21 07:13:14;;;;;;;15.43;9.00;;;4.50;99.90;;;;;;4956837;28;20047;-68
2021/01/21 07:15:44;;;;;;;9.52;7.25;;;4.50;99.90;;;;;;4960251;28;20153;-74
2021/01/21 07:18:28;;;;;;;11.60;8.95;;;4.50;99.90;;;;;;4955442;28;20052;-70
2021/01/21 07:21:05;;;;;;;17.35;8.32;;;4.50;99.90;;;;;;4961121;28;20050;-72
2021/01/21 07:23:37;;;;;;;12.30;8.32;;;4.60;99.90;;;;;;4956894;28;20051;-70
2021/01/21 07:26:41;;;;;;;15.23;9.55;;;4.50;99.90;;;;;;4956157;28;20057;-70
2021/01/21 07:29:13;;;;;;;16.45;9.85;;;4.50;99.90;;;;;;4954732;28;20042;-70
2021/01/21 07:31:59;;;;;;;18.42;10.50;;;4.50;99.90;;;;;;4960568;28;20600;-74
2021/01/21 07:34:37;;;;;;;23.50;10.52;;;4.50;99.90;;;;;;4958849;28;20050;-70
2021/01/21 07:37:42;;;;;;;20.10;10.25;;;4.50;99.90;;;;;;4965205;28;20047;-70
2021/01/21 07:40:10;;;;;;;14.52;9.30;;;4.50;99.90;;;;;;4956796;28;20063;-70
2021/01/21 07:42:36;;;;;;;14.63;9.07;;;4.50;99.90;;;;;;4959863;28;20142;-71
2021/01/21 07:45:13;;;;;;;13.98;9.85;;;4.50;99.90;;;;;;4957266;28;20055;-73
2021/01/21 07:47:41;;;;;;;11.90;8.20;;;4.50;99.90;;;;;;4963612;28;20039;-66
2021/01/21 07:50:25;;;;;;;17.00;7.10;;;4.50;99.90;;;;;;4959669;28;20540;-71
2021/01/21 07:52:53;;;;;;;11.50;8.07;;;4.50;99.90;;;;;;4956321;28;20537;-70
2021/01/21 07:55:37;;;;;;;14.63;8.05;;;4.60;99.90;;;;;;4962368;28;20042;-70
2021/01/21 07:58:35;;;;;;;16.20;7.10;;;4.60;99.90;;;;;;4962414;28;20047;-70
2021/01/21 08:01:19;;;;;;;10.75;7.13;;;4.60;99.90;;;;;;4960560;28;20082;-73
2021/01/21 08:03:46;;;;;;;10.73;7.93;;;4.60;99.90;;;;;;4960904;28;20043;-69
2021/01/21 08:06:18;;;;;;;13.60;7.38;;;4.60;99.90;;;;;;4958264;28;20055;-72
2021/01/21 08:08:47;;;;;;;13.82;8.13;;;4.60;99.90;;;;;;4960224;28;20042;-69
2021/01/21 08:11:19;;;;;;;13.75;7.88;;;4.70;99.90;;;;;;4960138;28;20117;-68
2021/01/21 08:13:47;;;;;;;15.15;7.13;;;4.70;99.90;;;;;;4957054;28;20043;-75
2021/01/21 08:16:17;;;;;;;9.65;6.53;;;4.70;99.90;;;;;;4960584;28;20054;-69
2021/01/21 08:18:45;;;;;;;;;;;4.70;99.90;;;;;;4959321;28;20066;-69
2021/01/21 08:21:18;;;;;;;13.32;7.03;;;4.80;99.90;;;;;;4961923;28;19937;-69
2021/01/21 08:23:51;;;;;;;11.18;6.97;;;4.70;99.90;;;;;;4959498;28;20407;-73
2021/01/21 08:26:18;;;;;;;11.98;6.90;;;4.70;99.90;;;;;;4958948;28;20068;-75
2021/01/21 08:28:45;;;;;;;12.48;6.90;;;4.70;99.90;;;;;;4959762;28;20118;-71
2021/01/21 08:31:12;;;;;;;19.50;6.72;;;4.70;99.90;;;;;;4957873;28;20046;-71
2021/01/21 08:33:40;;;;;;;7.80;5.32;;;4.70;99.90;;;;;;4960086;28;20446;-74
2021/01/21 08:36:08;;;;;;;11.43;6.05;;;4.80;99.90;;;;;;4957566;28;20733;-73
2021/01/21 08:38:42;;;;;;;12.10;5.85;;;4.80;99.90;;;;;;4961282;28;20075;-69
2021/01/21 08:41:14;;;;;;;10.35;5.80;;;4.80;99.90;;;;;;4959027;28;20516;-66
2021/01/21 08:43:45;;;;;;;9.00;6.05;;;4.80;99.90;;;;;;4958573;28;20565;-66
2021/01/21 08:46:29;;;;;;;10.02;6.03;;;4.80;99.90;;;;;;4961128;28;20844;-71
2021/01/21 08:49:08;;;;;;;16.60;6.35;;;4.80;99.90;;;;;;4959511;28;20439;-71
2021/01/21 08:51:41;;;;;;;16.27;7.90;;;4.90;99.90;;;;;;4961979;28;20580;-71
2021/01/21 08:54:21;;;;;;;12.63;5.75;;;4.80;99.90;;;;;;4958405;28;20065;-69
2021/01/21 08:57:10;;;;;;;6.63;5.10;;;4.90;99.90;;;;;;4960807;28;20137;-71
2021/01/21 08:59:41;;;;;;;8.95;6.22;;;4.90;99.90;;;;;;4954971;28;20057;-75
2021/01/21 09:02:09;;;;;;;10.98;5.82;;;4.80;99.90;;;;;;4958252;28;20153;-68
2021/01/21 09:04:38;;;;;;;9.10;5.93;;;4.90;99.90;;;;;;4959717;28;20047;-73
2021/01/21 09:07:09;;;;;;;10.25;6.10;;;4.90;99.90;;;;;;4963404;28;20141;-71
2021/01/21 09:09:40;;;;;;;9.32;7.13;;;5.00;99.90;;;;;;4960093;28;20058;-74
2021/01/21 09:12:22;;;;;;;11.30;5.47;;;5.00;99.90;;;;;;4957352;28;20461;-74
2021/01/21 09:15:07;;;;;;;10.65;6.18;;;5.10;99.90;;;;;;4958217;28;20069;-74
2021/01/21 09:17:35;;;;;;;11.63;5.80;;;5.00;99.90;;;;;;4957062;28;20046;-76
2021/01/21 09:20:26;;;;;;;15.75;5.80;;;5.10;99.90;;;;;;4959042;28;20050;-72
2021/01/21 09:23:22;;;;;;;11.95;6.35;;;5.10;99.90;;;;;;4956217;28;20113;-75
2021/01/21 09:25:48;;;;;;;10.68;5.85;;;5.00;99.90;;;;;;4955568;28;20047;-70
2021/01/21 09:28:16;;;;;;;11.32;5.55;;;5.00;99.90;;;;;;4955609;28;20490;-75
2021/01/21 09:30:43;;;;;;;13.40;6.13;;;5.00;99.90;;;;;;4960545;28;20047;-76
2021/01/21 09:33:10;;;;;;;15.68;7.68;;;5.10;99.90;;;;;;4959198;28;21242;-70
2021/01/21 09:35:38;;;;;;;9.88;6.75;;;5.10;99.90;;;;;;4959668;28;20043;-75
2021/01/21 09:38:04;;;;;;;13.43;6.65;;;5.10;99.90;;;;;;4956923;28;20133;-66
2021/01/21 09:40:34;;;;;;;11.15;6.00;;;5.10;99.90;;;;;;4959909;28;20078;-71
2021/01/21 09:43:03;;;;;;;7.82;5.53;;;5.10;99.90;;;;;;4954263;28;20054;-73
2021/01/21 09:45:31;;;;;;;8.23;6.20;;;5.10;99.90;;;;;;4958933;28;20051;-74
2021/01/21 09:47:58;;;;;;;15.60;6.90;;;5.20;99.90;;;;;;4958729;28;20672;-72
2021/01/21 09:50:27;;;;;;;14.45;7.57;;;5.20;99.90;;;;;;4958404;28;20047;-71
2021/01/21 09:52:53;;;;;;;14.32;8.43;;;5.20;99.90;;;;;;4958032;28;20423;-70
2021/01/21 09:55:20;;;;;;;10.05;5.60;;;5.20;99.90;;;;;;4960282;28;20051;-68
2021/01/21 09:57:47;;;;;;;13.93;6.47;;;5.20;99.90;;;;;;4962646;28;20132;-72
2021/01/21 10:00:14;;;;;;;7.57;5.93;;;5.20;99.90;;;;;;4961191;28;20128;-74
2021/01/21 10:02:41;;;;;;;13.82;6.00;;;5.20;99.90;;;;;;4960295;28;20058;-70
2021/01/21 10:05:09;;;;;;;10.40;6.03;;;5.20;99.90;;;;;;4959734;28;20066;-68
2021/01/21 10:07:37;;;;;;;9.00;5.65;;;5.30;99.90;;;;;;4960895;28;20049;-71
2021/01/21 10:10:04;;;;;;;7.00;5.93;;;5.30;99.90;;;;;;4959874;28;20125;-66
2021/01/21 10:12:31;;;;;;;12.90;5.82;;;5.30;99.90;;;;;;4961491;28;20223;-71
2021/01/21 10:14:58;;;;;;;12.45;4.90;;;5.30;99.90;;;;;;4950589;28;20573;-75
2021/01/21 10:17:26;;;;;;;9.23;6.68;;;5.30;99.90;;;;;;4952128;28;20057;-72
2021/01/21 10:19:53;;;;;;;11.63;5.82;;;5.40;99.90;;;;;;4960449;28;20128;-71
2021/01/21 10:22:19;;;;;;;9.95;5.93;;;5.40;99.90;;;;;;4956253;28;20121;-71
2021/01/21 10:24:48;;;;;;;9.10;5.63;;;5.40;99.90;;;;;;4961638;28;20050;-73
2021/01/21 10:27:15;;;;;;;12.35;5.95;;;5.40;99.90;;;;;;4957532;28;20440;-71
2021/01/21 10:29:41;;;;;;;6.28;5.07;;;5.40;99.90;;;;;;4957792;28;20047;-75
2021/01/21 10:32:08;;;;;;;9.10;4.65;;;5.40;99.90;;;;;;4957816;28;20053;-70
2021/01/21 10:34:35;;;;;;;7.53;5.05;;;5.40;99.90;;;;;;4958416;28;20069;-71
2021/01/21 10:37:03;;;;;;;15.00;6.20;;;5.40;99.90;;;;;;4958179;28;20656;-76
2021/01/21 10:39:29;;;;;;;10.13;5.15;;;5.40;99.90;;;;;;4963755;28;20574;-74
2021/01/21 10:41:55;;;;;;;6.93;5.90;;;5.40;99.90;;;;;;4959417;28;20058;-75
2021/01/21 10:44:22;;;;;;;5.50;4.85;;;5.40;99.90;;;;;;4957891;28;20066;-75
2021/01/21 10:46:48;;;;;;;11.05;5.50;;;5.50;99.90;;;;;;4961764;28;20549;-70
2021/01/21 10:49:15;;;;;;;9.98;5.82;;;5.50;99.90;;;;;;4954689;28;20055;-76
2021/01/21 10:51:41;;;;;;;8.70;5.40;;;5.50;99.90;;;;;;4961984;28;20070;-71
2021/01/21 10:54:08;;;;;;;7.80;5.88;;;5.40;99.90;;;;;;4955111;28;20055;-72
2021/01/21 10:56:34;;;;;;;12.32;6.32;;;5.50;99.90;;;;;;4960781;28;20050;-72
2021/01/21 10:59:01;;;;;;;9.88;4.95;;;5.50;99.90;;;;;;4955707;28;20046;-71
2021/01/21 11:01:30;;;;;;;7.40;4.90;;;5.50;99.90;;;;;;4959733;28;20047;-70
2021/01/21 11:03:57;;;;;;;7.32;4.20;;;5.50;99.90;;;;;;4955602;28;20050;-76
2021/01/21 11:06:24;;;;;;;7.60;4.82;;;5.60;99.90;;;;;;4954398;28;20142;-74
2021/01/21 11:08:51;;;;;;;7.78;4.20;;;5.50;99.90;;;;;;4962934;28;20638;-71
2021/01/21 11:11:17;;;;;;;9.13;5.28;;;5.50;99.90;;;;;;4961877;28;20128;-75
2021/01/21 11:13:44;;;;;;;6.03;4.32;;;5.60;99.90;;;;;;4960809;28;20060;-68
2021/01/21 11:16:10;;;;;;;8.65;4.40;;;5.60;99.90;;;;;;4961480;28;20089;-75
2021/01/21 11:18:37;;;;;;;8.95;4.82;;;5.60;99.90;;;;;;4962189;28;20109;-72
2021/01/21 11:21:04;;;;;;;5.85;4.38;;;5.70;99.90;;;;;;4958553;28;21600;-74
2021/01/21 11:23:31;;;;;;;9.65;4.78;;;5.70;99.90;;;;;;4962377;28;20050;-71
2021/01/21 11:25:57;;;;;;;6.60;4.35;;;5.70;99.90;;;;;;4959154;28;20102;-69
2021/01/21 11:28:23;;;;;;;6.13;3.60;;;5.70;99.90;;;;;;4960776;28;20051;-71
2021/01/21 11:30:50;;;;;;;6.25;4.10;;;5.80;99.90;;;;;;4962091;28;20061;-67
2021/01/21 11:33:17;;;;;;;6.30;3.80;;;5.80;99.90;;;;;;4962276;28;20075;-71
2021/01/21 11:35:45;;;;;;;7.20;4.13;;;5.90;99.90;;;;;;4961059;28;20513;-74
2021/01/21 11:38:13;;;;;;;11.80;5.68;;;5.90;99.90;;;;;;4958428;28;21312;-70
2021/01/21 11:40:40;;;;;;;6.35;4.32;;;5.90;99.90;;;;;;4961673;28;20153;-69
2021/01/21 11:43:08;;;;;;;6.72;4.35;;;5.90;99.90;;;;;;4958487;28;20069;-69
2021/01/21 11:45:35;;;;;;;5.55;3.42;;;5.90;99.90;;;;;;4961734;28;20129;-68
2021/01/21 11:48:04;;;;;;;6.75;3.92;;;5.80;99.90;;;;;;4962530;28;20047;-72
2021/01/21 11:50:30;;;;;;;7.60;4.18;;;5.80;99.90;;;;;;4967387;28;20112;-68
2021/01/21 11:52:56;;;;;;;11.13;3.92;;;5.80;99.90;;;;;;4970956;28;20105;-69
2021/01/21 11:55:23;;;;;;;6.15;3.78;;;5.90;99.90;;;;;;4960672;28;20043;-69
2021/01/21 11:57:50;;;;;;;10.20;4.13;;;5.90;99.90;;;;;;4965944;28;20055;-71
2021/01/21 12:00:17;;;;;;;7.72;3.53;;;5.90;99.90;;;;;;4962627;28;20109;-68
2021/01/21 12:02:43;;;;;;;8.52;3.70;;;5.90;99.90;;;;;;4965350;28;20719;-71
2021/01/21 12:05:10;;;;;;;7.57;3.78;;;5.90;99.90;;;;;;4961542;28;20137;-69
2021/01/21 12:07:37;;;;;;;7.63;3.65;;;6.00;99.90;;;;;;4968632;28;20462;-69
2021/01/21 12:10:06;;;;;;;7.00;3.63;;;6.00;99.90;;;;;;4960569;28;20051;-74
2021/01/21 12:12:34;;;;;;;11.90;4.78;;;6.00;99.90;;;;;;4960896;28;20057;-69
2021/01/21 12:15:01;;;;;;;7.55;3.55;;;6.00;99.90;;;;;;4961139;28;20046;-71
2021/01/21 12:17:28;;;;;;;8.30;4.35;;;5.90;99.90;;;;;;4956525;28;20132;-70
2021/01/21 12:19:55;;;;;;;7.22;4.45;;;6.00;99.90;;;;;;4961431;28;20079;-68
2021/01/21 12:22:22;;;;;;;11.02;4.32;;;6.00;99.90;;;;;;4958641;28;20146;-70
2021/01/21 12:24:48;;;;;;;10.38;3.83;;;6.00;99.90;;;;;;4962899;28;20053;-69
2021/01/21 12:27:15;;;;;;;9.27;3.78;;;6.00;99.90;;;;;;4960071;28;20130;-69
2021/01/21 12:29:42;;;;;;;9.38;3.95;;;6.10;99.90;;;;;;4961042;28;20726;-71
2021/01/21 12:32:08;;;;;;;6.72;3.70;;;6.20;99.90;;;;;;4961927;28;20471;-71
2021/01/21 12:34:35;;;;;;;6.30;3.72;;;6.30;99.90;;;;;;4962233;28;20046;-74
2021/01/21 12:37:01;;;;;;;5.05;3.50;;;6.40;99.90;;;;;;4958058;28;20146;-72
2021/01/21 12:39:28;;;;;;;5.97;3.45;;;6.40;99.90;;;;;;4959611;28;20039;-70
2021/01/21 12:41:55;;;;;;;4.65;3.38;;;6.50;99.90;;;;;;4961933;28;20123;-70
2021/01/21 12:44:21;;;;;;;7.88;4.28;;;6.50;99.90;;;;;;4960667;28;20719;-74
2021/01/21 12:46:48;;;;;;;4.72;3.80;;;6.50;99.90;;;;;;4960826;28;20054;-67
2021/01/21 12:49:15;;;;;;;7.78;4.38;;;6.50;99.90;;;;;;4960894;28;20069;-70
2021/01/21 12:51:41;;;;;;;11.13;3.38;;;6.60;99.90;;;;;;4962140;28;20058;-73
2021/01/21 12:54:08;;;;;;;12.60;4.85;;;6.60;99.90;;;;;;4959445;28;20054;-68
2021/01/21 12:56:35;;;;;;;6.43;3.47;;;6.60;99.90;;;;;;4961701;28;20046;-69
2021/01/21 12:59:02;;;;;;;7.28;3.90;;;6.60;99.90;;;;;;4931808;28;20442;-74
2021/01/21 13:01:30;;;;;;;6.20;4.13;;;6.70;99.90;;;;;;4923209;28;20218;-73
2021/01/21 13:03:57;;;;;;;5.25;3.35;;;6.70;99.90;;;;;;4921882;28;20050;-78
2021/01/21 13:06:23;;;;;;;5.97;3.95;;;6.60;99.90;;;;;;4960991;28;20053;-70
2021/01/21 13:08:50;;;;;;;6.28;3.88;;;6.60;99.90;;;;;;4959708;28;20127;-66
2021/01/21 13:11:16;;;;;;;6.22;4.75;;;6.60;99.90;;;;;;4961311;28;20050;-67
2021/01/21 13:13:43;;;;;;;8.93;4.30;;;6.60;99.90;;;;;;4962956;28;20848;-71
2021/01/21 13:16:10;;;;;;;6.03;4.57;;;6.50;99.90;;;;;;4942618;28;20051;-71